< Typhoon 197420 1974 Season Typhoon 197422 >
Typhoon 197421 (WENDY)
General InformationTrack Information on Google Maps || Disaster Info.ResourceGoogle EarthGE AnimationAtom FeedGeoJSON
Detalied Best Track (Time Zone = UTC)
Year Month Day Hour Lat. Long. Pressure (hPa) Wind (kt) Class Image Chart
1974 9 19 06 16.2 146.4 1006 0 2 -- Chart
1974 9 19 12 16.1 146.0 1006 0 2 -- Chart
1974 9 19 18 16.0 145.5 1006 0 2 -- Chart
1974 9 20 00 16.0 144.3 1004 0 2 -- Chart
1974 9 20 06 16.0 143.0 1004 0 2 -- Chart
1974 9 20 12 16.0 142.2 1006 0 2 -- Chart
1974 9 20 18 16.0 141.3 1004 0 2 -- Chart
1974 9 21 00 15.9 140.0 1004 0 2 -- Chart
1974 9 21 06 15.5 139.4 1004 0 2 -- Chart
1974 9 21 12 15.3 139.0 1004 0 2 -- Chart
1974 9 21 18 15.0 138.0 1004 0 2 -- Chart
1974 9 22 00 15.0 137.0 1004 0 2 -- Chart
1974 9 22 06 15.0 135.0 1004 0 2 -- Chart
1974 9 22 12 15.0 133.0 1004 0 2 -- Chart
1974 9 22 18 15.0 131.0 1004 0 2 -- Chart
1974 9 23 00 14.9 129.0 1006 0 2 -- Chart
1974 9 23 06 15.1 128.0 1006 0 2 -- Chart
1974 9 23 12 15.5 126.8 1006 0 2 -- Chart
1974 9 23 18 16.1 125.8 1004 0 2 -- Chart
1974 9 24 00 16.8 124.8 1004 0 2 -- Chart
1974 9 24 06 17.6 124.1 1000 0 2 -- Chart
1974 9 24 12 18.1 123.5 1000 0 2 -- Chart
1974 9 24 18 18.4 122.5 1000 0 9 -- Chart
1974 9 25 00 18.7 121.5 1000 0 9 -- Chart
1974 9 25 06 19.0 121.0 998 0 9 -- Chart
1974 9 25 12 19.3 120.7 996 0 9 -- Chart
1974 9 25 18 19.4 120.5 996 0 9 -- Chart
1974 9 26 00 19.6 120.7 996 0 9 -- Chart
1974 9 26 06 19.9 120.9 996 0 9 -- Chart
1974 9 26 12 20.4 120.8 992 0 9 -- Chart
1974 9 26 18 20.7 120.5 992 0 9 -- Chart
1974 9 27 00 21.4 120.5 990 0 9 -- Chart
1974 9 27 06 21.7 121.3 985 0 9 -- Chart
1974 9 27 12 22.6 121.7 985 0 9 -- Chart
1974 9 27 18 23.4 122.3 985 0 9 -- Chart
1974 9 28 00 24.0 122.5 985 0 9 -- Chart
1974 9 28 06 24.7 122.3 985 0 9 -- Chart
1974 9 28 12 24.9 121.8 985 0 9 -- Chart
1974 9 28 18 24.8 121.2 994 0 9 -- Chart
1974 9 29 00 25.0 120.8 1000 0 9 -- Chart
1974 9 29 06 25.3 120.9 1000 0 2 -- Chart
1974 9 29 12 25.6 121.0 1002 0 2 -- Chart
1974 9 29 18 25.8 121.0 1004 0 2 -- Chart
1974 9 30 00 26.0 121.0 1004 0 2 -- Chart
1974 9 30 06 26.3 121.5 1006 0 2 -- Chart
1974 9 30 12 26.6 121.9 1008 0 2 -- Chart
1974 9 30 18 27.2 122.9 1008 0 2 -- Chart
1974 10 1 00 27.6 124.0 1008 0 2 -- Chart
1974 10 1 06 28.2 126.7 1008 0 2 -- Chart
Japan Meteorological Agency Best Track Data | Correction Date : 1989-06-01
< Typhoon 197420 1974 Season Typhoon 197422 >

Help